sensor_id;sensor_type;location;lat;lon;timestamp;P1;durP1;ratioP1;P2;durP2;ratioP2
3527;SDS011;1778;47.966;7.854;2023-12-14T00:00:31;5.67;;;5.37;;
3527;SDS011;1778;47.966;7.854;2023-12-14T00:01:32;5.03;;;4.90;;
3527;SDS011;1778;47.966;7.854;2023-12-14T00:02:34;4.70;;;4.60;;
3527;SDS011;1778;47.966;7.854;2023-12-14T00:03:36;5.20;;;5.00;;
3527;SDS011;1778;47.966;7.854;2023-12-14T00:04:38;4.80;;;4.70;;
3527;SDS011;1778;47.966;7.854;2023-12-14T00:05:41;5.23;;;4.83;;
3527;SDS011;1778;47.966;7.854;2023-12-14T00:06:43;5.13;;;4.93;;
3527;SDS011;1778;47.966;7.854;2023-12-14T00:07:44;4.70;;;4.60;;
3527;SDS011;1778;47.966;7.854;2023-12-14T00:08:46;4.90;;;4.70;;
3527;SDS011;1778;47.966;7.854;2023-12-14T00:09:47;4.90;;;4.70;;
3527;SDS011;1778;47.966;7.854;2023-12-14T00:10:48;5.10;;;4.90;;
3527;SDS011;1778;47.966;7.854;2023-12-14T00:11:51;5.17;;;5.07;;
3527;SDS011;1778;47.966;7.854;2023-12-14T00:12:53;5.13;;;4.93;;
3527;SDS011;1778;47.966;7.854;2023-12-14T00:13:56;4.93;;;4.83;;
3527;SDS011;1778;47.966;7.854;2023-12-14T00:14:57;6.10;;;5.90;;
3527;SDS011;1778;47.966;7.854;2023-12-14T00:15:59;5.20;;;5.10;;
3527;SDS011;1778;47.966;7.854;2023-12-14T00:17:01;5.00;;;4.90;;
3527;SDS011;1778;47.966;7.854;2023-12-14T00:18:02;5.10;;;5.00;;
3527;SDS011;1778;47.966;7.854;2023-12-14T00:19:06;4.97;;;4.87;;
3527;SDS011;1778;47.966;7.854;2023-12-14T00:20:08;5.23;;;5.13;;
3527;SDS011;1778;47.966;7.854;2023-12-14T00:21:10;5.03;;;4.93;;
3527;SDS011;1778;47.966;7.854;2023-12-14T00:22:12;5.00;;;4.70;;
3527;SDS011;1778;47.966;7.854;2023-12-14T00:23:13;5.53;;;5.23;;
3527;SDS011;1778;47.966;7.854;2023-12-14T00:24:15;5.17;;;4.87;;
3527;SDS011;1778;47.966;7.854;2023-12-14T00:25:16;18.73;;;5.57;;
3527;SDS011;1778;47.966;7.854;2023-12-14T00:26:18;5.20;;;5.00;;
3527;SDS011;1778;47.966;7.854;2023-12-14T00:27:20;5.60;;;5.40;;
3527;SDS011;1778;47.966;7.854;2023-12-14T00:28:22;4.80;;;4.70;;
3527;SDS011;1778;47.966;7.854;2023-12-14T00:29:28;5.47;;;5.27;;
3527;SDS011;1778;47.966;7.854;2023-12-14T00:30:30;5.77;;;5.67;;
3527;SDS011;1778;47.966;7.854;2023-12-14T00:31:31;5.57;;;5.37;;
3527;SDS011;1778;47.966;7.854;2023-12-14T00:32:33;4.57;;;4.47;;
3527;SDS011;1778;47.966;7.854;2023-12-14T00:33:34;5.00;;;4.90;;
3527;SDS011;1778;47.966;7.854;2023-12-14T00:34:36;5.00;;;4.90;;
3527;SDS011;1778;47.966;7.854;2023-12-14T00:35:38;5.90;;;5.70;;
3527;SDS011;1778;47.966;7.854;2023-12-14T00:36:39;5.20;;;4.90;;
3527;SDS011;1778;47.966;7.854;2023-12-14T00:37:41;4.90;;;4.70;;
3527;SDS011;1778;47.966;7.854;2023-12-14T00:38:42;5.07;;;4.90;;
3527;SDS011;1778;47.966;7.854;2023-12-14T00:39:44;5.50;;;5.30;;
3527;SDS011;1778;47.966;7.854;2023-12-14T00:40:46;4.93;;;4.83;;
3527;SDS011;1778;47.966;7.854;2023-12-14T00:41:47;16.03;;;4.97;;
3527;SDS011;1778;47.966;7.854;2023-12-14T00:42:48;5.20;;;5.10;;
3527;SDS011;1778;47.966;7.854;2023-12-14T00:43:50;5.10;;;5.00;;
3527;SDS011;1778;47.966;7.854;2023-12-14T00:44:51;5.13;;;5.03;;
3527;SDS011;1778;47.966;7.854;2023-12-14T00:45:53;5.10;;;5.00;;
3527;SDS011;1778;47.966;7.854;2023-12-14T00:46:54;5.60;;;5.40;;
3527;SDS011;1778;47.966;7.854;2023-12-14T00:47:55;5.10;;;4.90;;
3527;SDS011;1778;47.966;7.854;2023-12-14T00:48:57;5.23;;;4.83;;
3527;SDS011;1778;47.966;7.854;2023-12-14T00:49:58;5.37;;;5.27;;
3527;SDS011;1778;47.966;7.854;2023-12-14T00:51:00;4.80;;;4.70;;
3527;SDS011;1778;47.966;7.854;2023-12-14T00:52:01;5.30;;;5.20;;
3527;SDS011;1778;47.966;7.854;2023-12-14T00:53:03;4.93;;;4.83;;
3527;SDS011;1778;47.966;7.854;2023-12-14T00:54:04;4.80;;;4.70;;
3527;SDS011;1778;47.966;7.854;2023-12-14T00:55:06;5.47;;;5.37;;
3527;SDS011;1778;47.966;7.854;2023-12-14T00:56:08;4.97;;;4.87;;
3527;SDS011;1778;47.966;7.854;2023-12-14T00:57:10;5.30;;;5.10;;
3527;SDS011;1778;47.966;7.854;2023-12-14T00:58:11;5.30;;;5.00;;
3527;SDS011;1778;47.966;7.854;2023-12-14T00:59:16;5.43;;;5.13;;
3527;SDS011;1778;47.966;7.854;2023-12-14T01:00:18;4.63;;;4.53;;
3527;SDS011;1778;47.966;7.854;2023-12-14T01:01:19;4.80;;;4.70;;
3527;SDS011;1778;47.966;7.854;2023-12-14T01:02:21;6.63;;;4.33;;
3527;SDS011;1778;47.966;7.854;2023-12-14T01:03:22;4.80;;;4.70;;
3527;SDS011;1778;47.966;7.854;2023-12-14T01:04:24;4.77;;;4.67;;
3527;SDS011;1778;47.966;7.854;2023-12-14T01:05:25;5.33;;;5.13;;
3527;SDS011;1778;47.966;7.854;2023-12-14T01:06:27;4.70;;;4.60;;
3527;SDS011;1778;47.966;7.854;2023-12-14T01:07:28;4.97;;;4.87;;
3527;SDS011;1778;47.966;7.854;2023-12-14T01:08:29;5.10;;;4.90;;
3527;SDS011;1778;47.966;7.854;2023-12-14T01:09:31;5.77;;;5.23;;
3527;SDS011;1778;47.966;7.854;2023-12-14T01:10:32;5.37;;;5.20;;
3527;SDS011;1778;47.966;7.854;2023-12-14T01:11:34;5.27;;;4.97;;
3527;SDS011;1778;47.966;7.854;2023-12-14T01:12:36;5.23;;;5.03;;
3527;SDS011;1778;47.966;7.854;2023-12-14T01:13:38;4.93;;;4.80;;
3527;SDS011;1778;47.966;7.854;2023-12-14T01:14:40;4.87;;;4.77;;
3527;SDS011;1778;47.966;7.854;2023-12-14T01:15:41;6.13;;;4.90;;
3527;SDS011;1778;47.966;7.854;2023-12-14T01:16:42;5.30;;;5.13;;
3527;SDS011;1778;47.966;7.854;2023-12-14T01:17:44;4.93;;;4.73;;
3527;SDS011;1778;47.966;7.854;2023-12-14T01:18:45;5.27;;;5.07;;
3527;SDS011;1778;47.966;7.854;2023-12-14T01:19:47;4.93;;;4.83;;
3527;SDS011;1778;47.966;7.854;2023-12-14T01:20:49;4.57;;;4.47;;
3527;SDS011;1778;47.966;7.854;2023-12-14T01:21:50;4.80;;;4.70;;
3527;SDS011;1778;47.966;7.854;2023-12-14T01:22:52;4.67;;;4.47;;
3527;SDS011;1778;47.966;7.854;2023-12-14T01:23:53;4.90;;;4.80;;
3527;SDS011;1778;47.966;7.854;2023-12-14T01:24:55;4.57;;;4.37;;
3527;SDS011;1778;47.966;7.854;2023-12-14T01:25:57;4.43;;;4.33;;
3527;SDS011;1778;47.966;7.854;2023-12-14T01:26:58;5.17;;;4.87;;
3527;SDS011;1778;47.966;7.854;2023-12-14T01:28:00;4.83;;;4.73;;
3527;SDS011;1778;47.966;7.854;2023-12-14T01:29:01;4.47;;;4.37;;
3527;SDS011;1778;47.966;7.854;2023-12-14T01:30:03;4.73;;;4.57;;
3527;SDS011;1778;47.966;7.854;2023-12-14T01:31:04;4.40;;;4.30;;
3527;SDS011;1778;47.966;7.854;2023-12-14T01:32:06;4.53;;;4.43;;
3527;SDS011;1778;47.966;7.854;2023-12-14T01:33:07;4.93;;;4.73;;
3527;SDS011;1778;47.966;7.854;2023-12-14T01:34:09;4.30;;;4.20;;
3527;SDS011;1778;47.966;7.854;2023-12-14T01:35:13;4.80;;;4.70;;
3527;SDS011;1778;47.966;7.854;2023-12-14T01:36:24;4.60;;;4.50;;
3527;SDS011;1778;47.966;7.854;2023-12-14T01:37:26;4.20;;;4.10;;
3527;SDS011;1778;47.966;7.854;2023-12-14T01:38:28;4.60;;;4.40;;
3527;SDS011;1778;47.966;7.854;2023-12-14T01:39:29;5.07;;;4.87;;
3527;SDS011;1778;47.966;7.854;2023-12-14T01:40:31;4.73;;;4.60;;
3527;SDS011;1778;47.966;7.854;2023-12-14T01:41:32;4.10;;;4.10;;
3527;SDS011;1778;47.966;7.854;2023-12-14T01:42:34;4.83;;;4.73;;
3527;SDS011;1778;47.966;7.854;2023-12-14T01:43:36;4.27;;;4.17;;
3527;SDS011;1778;47.966;7.854;2023-12-14T01:44:37;4.87;;;4.63;;
3527;SDS011;1778;47.966;7.854;2023-12-14T01:45:39;4.73;;;4.60;;
3527;SDS011;1778;47.966;7.854;2023-12-14T01:46:40;4.40;;;4.30;;
3527;SDS011;1778;47.966;7.854;2023-12-14T01:47:42;4.67;;;4.47;;
3527;SDS011;1778;47.966;7.854;2023-12-14T01:48:44;4.40;;;4.30;;
3527;SDS011;1778;47.966;7.854;2023-12-14T01:49:45;4.23;;;4.13;;
3527;SDS011;1778;47.966;7.854;2023-12-14T01:50:47;4.50;;;4.40;;
3527;SDS011;1778;47.966;7.854;2023-12-14T01:51:48;5.27;;;5.17;;
3527;SDS011;1778;47.966;7.854;2023-12-14T01:52:50;4.57;;;4.47;;
3527;SDS011;1778;47.966;7.854;2023-12-14T01:53:51;4.63;;;4.53;;
3527;SDS011;1778;47.966;7.854;2023-12-14T01:54:53;4.87;;;4.77;;
3527;SDS011;1778;47.966;7.854;2023-12-14T01:55:56;4.90;;;4.50;;
3527;SDS011;1778;47.966;7.854;2023-12-14T01:56:57;4.23;;;4.13;;
3527;SDS011;1778;47.966;7.854;2023-12-14T01:57:59;4.43;;;4.33;;
3527;SDS011;1778;47.966;7.854;2023-12-14T01:59:01;4.40;;;4.30;;
3527;SDS011;1778;47.966;7.854;2023-12-14T02:00:03;4.47;;;4.20;;
3527;SDS011;1778;47.966;7.854;2023-12-14T02:01:14;3.97;;;3.97;;
3527;SDS011;1778;47.966;7.854;2023-12-14T02:02:31;7.30;;;4.30;;
3527;SDS011;1778;47.966;7.854;2023-12-14T02:03:32;4.53;;;4.43;;
3527;SDS011;1778;47.966;7.854;2023-12-14T02:04:34;4.17;;;4.10;;
3527;SDS011;1778;47.966;7.854;2023-12-14T02:05:36;4.30;;;4.20;;
3527;SDS011;1778;47.966;7.854;2023-12-14T02:06:37;4.70;;;4.50;;
3527;SDS011;1778;47.966;7.854;2023-12-14T02:07:39;8.50;;;4.40;;
3527;SDS011;1778;47.966;7.854;2023-12-14T02:08:41;5.33;;;4.80;;
3527;SDS011;1778;47.966;7.854;2023-12-14T02:09:43;4.47;;;4.37;;
3527;SDS011;1778;47.966;7.854;2023-12-14T02:10:44;4.40;;;4.30;;
3527;SDS011;1778;47.966;7.854;2023-12-14T02:11:46;4.80;;;4.70;;
3527;SDS011;1778;47.966;7.854;2023-12-14T02:12:48;4.33;;;4.23;;
3527;SDS011;1778;47.966;7.854;2023-12-14T02:13:50;4.87;;;4.67;;
3527;SDS011;1778;47.966;7.854;2023-12-14T02:14:52;4.40;;;4.30;;
3527;SDS011;1778;47.966;7.854;2023-12-14T02:15:53;4.43;;;4.33;;
3527;SDS011;1778;47.966;7.854;2023-12-14T02:16:55;5.23;;;5.03;;
3527;SDS011;1778;47.966;7.854;2023-12-14T02:17:56;4.73;;;4.63;;
3527;SDS011;1778;47.966;7.854;2023-12-14T02:18:58;4.80;;;4.70;;
3527;SDS011;1778;47.966;7.854;2023-12-14T02:19:59;4.50;;;4.33;;
3527;SDS011;1778;47.966;7.854;2023-12-14T02:21:01;5.07;;;4.97;;
3527;SDS011;1778;47.966;7.854;2023-12-14T02:22:03;5.10;;;4.90;;
3527;SDS011;1778;47.966;7.854;2023-12-14T02:23:05;4.33;;;4.23;;
3527;SDS011;1778;47.966;7.854;2023-12-14T02:24:07;4.70;;;4.60;;
3527;SDS011;1778;47.966;7.854;2023-12-14T02:25:08;5.47;;;5.27;;
3527;SDS011;1778;47.966;7.854;2023-12-14T02:26:09;5.50;;;4.60;;
3527;SDS011;1778;47.966;7.854;2023-12-14T02:27:11;4.87;;;4.77;;
3527;SDS011;1778;47.966;7.854;2023-12-14T02:28:13;5.30;;;5.10;;
3527;SDS011;1778;47.966;7.854;2023-12-14T02:29:15;5.07;;;4.97;;
3527;SDS011;1778;47.966;7.854;2023-12-14T02:30:16;4.80;;;4.60;;
3527;SDS011;1778;47.966;7.854;2023-12-14T02:31:19;4.70;;;4.60;;
3527;SDS011;1778;47.966;7.854;2023-12-14T02:32:21;5.43;;;5.33;;
3527;SDS011;1778;47.966;7.854;2023-12-14T02:33:25;4.70;;;4.60;;
3527;SDS011;1778;47.966;7.854;2023-12-14T02:34:27;4.63;;;4.53;;
3527;SDS011;1778;47.966;7.854;2023-12-14T02:35:29;5.10;;;4.90;;
3527;SDS011;1778;47.966;7.854;2023-12-14T02:36:31;5.27;;;5.07;;
3527;SDS011;1778;47.966;7.854;2023-12-14T02:37:33;4.67;;;4.57;;
3527;SDS011;1778;47.966;7.854;2023-12-14T02:38:35;5.00;;;4.53;;
3527;SDS011;1778;47.966;7.854;2023-12-14T02:39:36;4.87;;;4.77;;
3527;SDS011;1778;47.966;7.854;2023-12-14T02:40:37;5.00;;;4.90;;
3527;SDS011;1778;47.966;7.854;2023-12-14T02:41:39;5.07;;;4.97;;
3527;SDS011;1778;47.966;7.854;2023-12-14T02:42:41;5.07;;;4.87;;
3527;SDS011;1778;47.966;7.854;2023-12-14T02:43:42;4.90;;;4.80;;
3527;SDS011;1778;47.966;7.854;2023-12-14T02:44:43;4.93;;;4.83;;
3527;SDS011;1778;47.966;7.854;2023-12-14T02:45:45;9.53;;;4.80;;
3527;SDS011;1778;47.966;7.854;2023-12-14T02:46:46;5.33;;;5.13;;
3527;SDS011;1778;47.966;7.854;2023-12-14T02:47:48;6.07;;;5.67;;
3527;SDS011;1778;47.966;7.854;2023-12-14T02:48:50;6.23;;;5.73;;
3527;SDS011;1778;47.966;7.854;2023-12-14T02:49:52;5.17;;;5.07;;
3527;SDS011;1778;47.966;7.854;2023-12-14T02:50:54;6.00;;;5.57;;
3527;SDS011;1778;47.966;7.854;2023-12-14T02:51:55;6.13;;;5.83;;
3527;SDS011;1778;47.966;7.854;2023-12-14T02:52:57;5.97;;;5.67;;
3527;SDS011;1778;47.966;7.854;2023-12-14T02:53:58;5.23;;;5.10;;
3527;SDS011;1778;47.966;7.854;2023-12-14T02:54:59;5.90;;;5.30;;
3527;SDS011;1778;47.966;7.854;2023-12-14T02:56:01;5.63;;;5.33;;
3527;SDS011;1778;47.966;7.854;2023-12-14T02:57:03;5.83;;;5.53;;
3527;SDS011;1778;47.966;7.854;2023-12-14T02:58:05;5.57;;;5.30;;
3527;SDS011;1778;47.966;7.854;2023-12-14T02:59:07;5.63;;;5.43;;
3527;SDS011;1778;47.966;7.854;2023-12-14T03:00:09;6.10;;;5.67;;
3527;SDS011;1778;47.966;7.854;2023-12-14T03:01:10;5.20;;;5.00;;
3527;SDS011;1778;47.966;7.854;2023-12-14T03:02:12;5.70;;;5.50;;
3527;SDS011;1778;47.966;7.854;2023-12-14T03:03:14;5.80;;;5.50;;
3527;SDS011;1778;47.966;7.854;2023-12-14T03:04:16;5.10;;;4.97;;
3527;SDS011;1778;47.966;7.854;2023-12-14T03:05:17;6.47;;;6.17;;
3527;SDS011;1778;47.966;7.854;2023-12-14T03:06:19;5.40;;;5.20;;
3527;SDS011;1778;47.966;7.854;2023-12-14T03:07:20;5.50;;;5.40;;
3527;SDS011;1778;47.966;7.854;2023-12-14T03:08:21;7.00;;;5.97;;
3527;SDS011;1778;47.966;7.854;2023-12-14T03:09:23;5.10;;;4.90;;
3527;SDS011;1778;47.966;7.854;2023-12-14T03:10:24;6.17;;;5.73;;
3527;SDS011;1778;47.966;7.854;2023-12-14T03:11:26;5.83;;;5.40;;
3527;SDS011;1778;47.966;7.854;2023-12-14T03:12:27;5.00;;;4.80;;
3527;SDS011;1778;47.966;7.854;2023-12-14T03:13:29;5.20;;;4.90;;
3527;SDS011;1778;47.966;7.854;2023-12-14T03:14:31;10.50;;;5.43;;
3527;SDS011;1778;47.966;7.854;2023-12-14T03:15:33;5.27;;;5.07;;
3527;SDS011;1778;47.966;7.854;2023-12-14T03:16:35;4.93;;;4.73;;
3527;SDS011;1778;47.966;7.854;2023-12-14T03:17:36;5.13;;;4.93;;
3527;SDS011;1778;47.966;7.854;2023-12-14T03:18:38;5.40;;;4.90;;
3527;SDS011;1778;47.966;7.854;2023-12-14T03:19:40;4.77;;;4.67;;
3527;SDS011;1778;47.966;7.854;2023-12-14T03:20:42;5.40;;;5.20;;
3527;SDS011;1778;47.966;7.854;2023-12-14T03:21:43;5.30;;;5.20;;
3527;SDS011;1778;47.966;7.854;2023-12-14T03:22:45;5.23;;;5.00;;
3527;SDS011;1778;47.966;7.854;2023-12-14T03:23:46;5.00;;;4.90;;
3527;SDS011;1778;47.966;7.854;2023-12-14T03:24:48;5.00;;;4.90;;
3527;SDS011;1778;47.966;7.854;2023-12-14T03:25:49;5.20;;;5.00;;
3527;SDS011;1778;47.966;7.854;2023-12-14T03:26:50;5.13;;;5.03;;
3527;SDS011;1778;47.966;7.854;2023-12-14T03:27:52;5.50;;;5.20;;
3527;SDS011;1778;47.966;7.854;2023-12-14T03:28:53;5.23;;;5.10;;
3527;SDS011;1778;47.966;7.854;2023-12-14T03:29:55;5.90;;;5.50;;
3527;SDS011;1778;47.966;7.854;2023-12-14T03:30:56;5.17;;;5.00;;
3527;SDS011;1778;47.966;7.854;2023-12-14T03:31:58;6.10;;;5.10;;
3527;SDS011;1778;47.966;7.854;2023-12-14T03:33:00;5.53;;;5.23;;
3527;SDS011;1778;47.966;7.854;2023-12-14T03:34:01;5.50;;;5.40;;
3527;SDS011;1778;47.966;7.854;2023-12-14T03:35:03;5.50;;;5.30;;
3527;SDS011;1778;47.966;7.854;2023-12-14T03:36:05;6.07;;;5.77;;
3527;SDS011;1778;47.966;7.854;2023-12-14T03:37:07;5.23;;;5.03;;
3527;SDS011;1778;47.966;7.854;2023-12-14T03:38:09;4.83;;;4.73;;
3527;SDS011;1778;47.966;7.854;2023-12-14T03:39:10;5.10;;;4.80;;
3527;SDS011;1778;47.966;7.854;2023-12-14T03:40:12;5.07;;;4.97;;
3527;SDS011;1778;47.966;7.854;2023-12-14T03:41:14;4.80;;;4.70;;
3527;SDS011;1778;47.966;7.854;2023-12-14T03:42:15;6.33;;;5.03;;
3527;SDS011;1778;47.966;7.854;2023-12-14T03:43:16;5.27;;;5.13;;
3527;SDS011;1778;47.966;7.854;2023-12-14T03:44:18;5.17;;;5.07;;
3527;SDS011;1778;47.966;7.854;2023-12-14T03:45:20;5.30;;;5.20;;
3527;SDS011;1778;47.966;7.854;2023-12-14T03:46:21;6.00;;;5.00;;
3527;SDS011;1778;47.966;7.854;2023-12-14T03:47:23;5.63;;;5.33;;
3527;SDS011;1778;47.966;7.854;2023-12-14T03:48:24;6.63;;;5.50;;
3527;SDS011;1778;47.966;7.854;2023-12-14T03:49:26;4.97;;;4.87;;
3527;SDS011;1778;47.966;7.854;2023-12-14T03:50:27;5.50;;;5.40;;
3527;SDS011;1778;47.966;7.854;2023-12-14T03:51:30;5.00;;;4.90;;
3527;SDS011;1778;47.966;7.854;2023-12-14T03:52:31;5.43;;;5.00;;
3527;SDS011;1778;47.966;7.854;2023-12-14T03:53:33;5.27;;;5.17;;
3527;SDS011;1778;47.966;7.854;2023-12-14T03:54:35;5.50;;;5.30;;
3527;SDS011;1778;47.966;7.854;2023-12-14T03:55:37;6.00;;;5.70;;
3527;SDS011;1778;47.966;7.854;2023-12-14T03:56:38;5.20;;;5.10;;
3527;SDS011;1778;47.966;7.854;2023-12-14T03:57:39;5.97;;;5.40;;
3527;SDS011;1778;47.966;7.854;2023-12-14T03:58:41;5.10;;;4.90;;
3527;SDS011;1778;47.966;7.854;2023-12-14T03:59:43;5.80;;;5.57;;
3527;SDS011;1778;47.966;7.854;2023-12-14T04:00:44;5.13;;;4.97;;
3527;SDS011;1778;47.966;7.854;2023-12-14T04:01:46;5.20;;;5.07;;
3527;SDS011;1778;47.966;7.854;2023-12-14T04:02:47;6.07;;;5.57;;
3527;SDS011;1778;47.966;7.854;2023-12-14T04:03:49;6.47;;;6.07;;
3527;SDS011;1778;47.966;7.854;2023-12-14T04:04:50;8.60;;;5.30;;
3527;SDS011;1778;47.966;7.854;2023-12-14T04:05:52;5.53;;;5.43;;
3527;SDS011;1778;47.966;7.854;2023-12-14T04:06:53;5.70;;;5.50;;
3527;SDS011;1778;47.966;7.854;2023-12-14T04:07:55;6.07;;;5.87;;
3527;SDS011;1778;47.966;7.854;2023-12-14T04:08:56;5.67;;;5.50;;
3527;SDS011;1778;47.966;7.854;2023-12-14T04:09:58;5.80;;;5.60;;
3527;SDS011;1778;47.966;7.854;2023-12-14T04:11:00;6.23;;;5.53;;
3527;SDS011;1778;47.966;7.854;2023-12-14T04:12:02;5.80;;;5.50;;
3527;SDS011;1778;47.966;7.854;2023-12-14T04:13:03;5.93;;;5.57;;
3527;SDS011;1778;47.966;7.854;2023-12-14T04:14:05;5.73;;;5.53;;
3527;SDS011;1778;47.966;7.854;2023-12-14T04:15:07;6.50;;;6.07;;
3527;SDS011;1778;47.966;7.854;2023-12-14T04:16:10;5.37;;;5.17;;
3527;SDS011;1778;47.966;7.854;2023-12-14T04:17:11;5.60;;;5.40;;
3527;SDS011;1778;47.966;7.854;2023-12-14T04:18:14;6.17;;;5.87;;
3527;SDS011;1778;47.966;7.854;2023-12-14T04:19:15;5.70;;;5.50;;
3527;SDS011;1778;47.966;7.854;2023-12-14T04:20:16;5.70;;;5.47;;
3527;SDS011;1778;47.966;7.854;2023-12-14T04:21:18;5.83;;;5.63;;
3527;SDS011;1778;47.966;7.854;2023-12-14T04:22:20;5.30;;;5.20;;
3527;SDS011;1778;47.966;7.854;2023-12-14T04:23:21;5.37;;;5.27;;
3527;SDS011;1778;47.966;7.854;2023-12-14T04:24:23;5.50;;;5.40;;
3527;SDS011;1778;47.966;7.854;2023-12-14T04:25:24;6.33;;;5.93;;
3527;SDS011;1778;47.966;7.854;2023-12-14T04:26:26;5.60;;;5.40;;
3527;SDS011;1778;47.966;7.854;2023-12-14T04:27:28;5.20;;;5.00;;
3527;SDS011;1778;47.966;7.854;2023-12-14T04:28:31;5.47;;;5.27;;
3527;SDS011;1778;47.966;7.854;2023-12-14T04:29:32;5.43;;;5.23;;
3527;SDS011;1778;47.966;7.854;2023-12-14T04:30:34;5.40;;;5.30;;
3527;SDS011;1778;47.966;7.854;2023-12-14T04:31:35;5.07;;;4.87;;
3527;SDS011;1778;47.966;7.854;2023-12-14T04:32:37;6.07;;;5.67;;
3527;SDS011;1778;47.966;7.854;2023-12-14T04:33:39;5.60;;;5.40;;
3527;SDS011;1778;47.966;7.854;2023-12-14T04:34:41;6.40;;;6.00;;
3527;SDS011;1778;47.966;7.854;2023-12-14T04:35:42;5.60;;;5.20;;
3527;SDS011;1778;47.966;7.854;2023-12-14T04:36:47;5.20;;;4.90;;
3527;SDS011;1778;47.966;7.854;2023-12-14T04:37:49;5.67;;;5.50;;
3527;SDS011;1778;47.966;7.854;2023-12-14T04:38:50;11.37;;;6.27;;
3527;SDS011;1778;47.966;7.854;2023-12-14T04:39:52;6.77;;;6.40;;
3527;SDS011;1778;47.966;7.854;2023-12-14T04:40:53;8.30;;;5.37;;
3527;SDS011;1778;47.966;7.854;2023-12-14T04:41:55;5.33;;;5.23;;
3527;SDS011;1778;47.966;7.854;2023-12-14T04:42:56;5.53;;;5.33;;
3527;SDS011;1778;47.966;7.854;2023-12-14T04:43:58;5.47;;;5.37;;
3527;SDS011;1778;47.966;7.854;2023-12-14T04:44:59;4.70;;;4.60;;
3527;SDS011;1778;47.966;7.854;2023-12-14T04:46:01;7.33;;;5.30;;
3527;SDS011;1778;47.966;7.854;2023-12-14T04:47:02;5.63;;;5.43;;
3527;SDS011;1778;47.966;7.854;2023-12-14T04:48:04;6.77;;;6.07;;
3527;SDS011;1778;47.966;7.854;2023-12-14T04:49:06;6.20;;;5.60;;
3527;SDS011;1778;47.966;7.854;2023-12-14T04:50:08;5.40;;;5.30;;
3527;SDS011;1778;47.966;7.854;2023-12-14T04:51:13;5.93;;;5.63;;
3527;SDS011;1778;47.966;7.854;2023-12-14T04:52:14;5.80;;;5.60;;
3527;SDS011;1778;47.966;7.854;2023-12-14T04:53:16;5.73;;;5.53;;
3527;SDS011;1778;47.966;7.854;2023-12-14T04:54:18;6.33;;;6.00;;
3527;SDS011;1778;47.966;7.854;2023-12-14T04:55:19;5.97;;;5.57;;
3527;SDS011;1778;47.966;7.854;2023-12-14T04:56:21;5.10;;;4.80;;
3527;SDS011;1778;47.966;7.854;2023-12-14T04:57:22;5.00;;;4.90;;
3527;SDS011;1778;47.966;7.854;2023-12-14T04:58:24;5.50;;;5.40;;
3527;SDS011;1778;47.966;7.854;2023-12-14T04:59:25;5.70;;;5.47;;
3527;SDS011;1778;47.966;7.854;2023-12-14T05:00:26;5.87;;;5.67;;
3527;SDS011;1778;47.966;7.854;2023-12-14T05:01:28;5.73;;;5.53;;
3527;SDS011;1778;47.966;7.854;2023-12-14T05:02:32;5.23;;;5.13;;
3527;SDS011;1778;47.966;7.854;2023-12-14T05:03:34;5.30;;;5.20;;
3527;SDS011;1778;47.966;7.854;2023-12-14T05:04:36;5.83;;;5.57;;
3527;SDS011;1778;47.966;7.854;2023-12-14T05:05:37;6.17;;;5.77;;
3527;SDS011;1778;47.966;7.854;2023-12-14T05:06:39;6.00;;;5.57;;
3527;SDS011;1778;47.966;7.854;2023-12-14T05:07:40;5.80;;;5.60;;
3527;SDS011;1778;47.966;7.854;2023-12-14T05:08:42;6.03;;;5.87;;
3527;SDS011;1778;47.966;7.854;2023-12-14T05:09:43;5.63;;;5.53;;
3527;SDS011;1778;47.966;7.854;2023-12-14T05:10:45;5.70;;;5.50;;
3527;SDS011;1778;47.966;7.854;2023-12-14T05:11:47;6.13;;;5.73;;
3527;SDS011;1778;47.966;7.854;2023-12-14T05:12:48;5.37;;;5.27;;
3527;SDS011;1778;47.966;7.854;2023-12-14T05:13:49;6.07;;;5.93;;
3527;SDS011;1778;47.966;7.854;2023-12-14T05:14:51;6.40;;;6.20;;
3527;SDS011;1778;47.966;7.854;2023-12-14T05:15:53;5.67;;;5.57;;
3527;SDS011;1778;47.966;7.854;2023-12-14T05:16:55;6.37;;;6.17;;
3527;SDS011;1778;47.966;7.854;2023-12-14T05:17:57;5.90;;;5.70;;
3527;SDS011;1778;47.966;7.854;2023-12-14T05:18:58;6.13;;;5.77;;
3527;SDS011;1778;47.966;7.854;2023-12-14T05:20:00;5.37;;;5.27;;
3527;SDS011;1778;47.966;7.854;2023-12-14T05:21:02;5.40;;;5.30;;
3527;SDS011;1778;47.966;7.854;2023-12-14T05:22:04;5.37;;;5.27;;
3527;SDS011;1778;47.966;7.854;2023-12-14T05:23:05;5.77;;;5.57;;
3527;SDS011;1778;47.966;7.854;2023-12-14T05:24:07;5.93;;;5.70;;
3527;SDS011;1778;47.966;7.854;2023-12-14T05:25:08;5.50;;;5.40;;
3527;SDS011;1778;47.966;7.854;2023-12-14T05:26:10;5.70;;;5.50;;
3527;SDS011;1778;47.966;7.854;2023-12-14T05:27:11;5.70;;;5.60;;
3527;SDS011;1778;47.966;7.854;2023-12-14T05:28:13;6.40;;;5.80;;
3527;SDS011;1778;47.966;7.854;2023-12-14T05:29:14;5.93;;;5.57;;
3527;SDS011;1778;47.966;7.854;2023-12-14T05:30:18;6.63;;;6.40;;
3527;SDS011;1778;47.966;7.854;2023-12-14T05:31:19;6.50;;;6.30;;
3527;SDS011;1778;47.966;7.854;2023-12-14T05:32:21;5.57;;;5.47;;
3527;SDS011;1778;47.966;7.854;2023-12-14T05:33:23;6.27;;;6.07;;
3527;SDS011;1778;47.966;7.854;2023-12-14T05:34:24;5.90;;;5.70;;
3527;SDS011;1778;47.966;7.854;2023-12-14T05:35:26;5.77;;;5.60;;
3527;SDS011;1778;47.966;7.854;2023-12-14T05:36:27;5.90;;;5.80;;
3527;SDS011;1778;47.966;7.854;2023-12-14T05:37:28;5.97;;;5.87;;
3527;SDS011;1778;47.966;7.854;2023-12-14T05:38:31;6.20;;;6.10;;
3527;SDS011;1778;47.966;7.854;2023-12-14T05:39:33;5.50;;;5.40;;
3527;SDS011;1778;47.966;7.854;2023-12-14T05:40:34;6.23;;;6.03;;
3527;SDS011;1778;47.966;7.854;2023-12-14T05:41:39;9.00;;;5.73;;
3527;SDS011;1778;47.966;7.854;2023-12-14T05:42:42;5.90;;;5.80;;
3527;SDS011;1778;47.966;7.854;2023-12-14T05:43:43;5.90;;;5.70;;
3527;SDS011;1778;47.966;7.854;2023-12-14T05:44:44;5.90;;;5.70;;
3527;SDS011;1778;47.966;7.854;2023-12-14T05:45:46;6.50;;;6.03;;
3527;SDS011;1778;47.966;7.854;2023-12-14T05:46:48;10.43;;;6.60;;
3527;SDS011;1778;47.966;7.854;2023-12-14T05:47:50;5.77;;;5.67;;
3527;SDS011;1778;47.966;7.854;2023-12-14T05:48:52;5.73;;;5.63;;
3527;SDS011;1778;47.966;7.854;2023-12-14T05:49:53;6.23;;;6.03;;
3527;SDS011;1778;47.966;7.854;2023-12-14T05:50:55;6.10;;;6.00;;
3527;SDS011;1778;47.966;7.854;2023-12-14T05:51:58;5.97;;;5.87;;
3527;SDS011;1778;47.966;7.854;2023-12-14T05:53:00;6.00;;;5.80;;
3527;SDS011;1778;47.966;7.854;2023-12-14T05:54:02;7.50;;;5.90;;
3527;SDS011;1778;47.966;7.854;2023-12-14T05:55:03;5.73;;;5.63;;
3527;SDS011;1778;47.966;7.854;2023-12-14T05:56:05;6.93;;;6.20;;
3527;SDS011;1778;47.966;7.854;2023-12-14T05:57:07;5.70;;;5.60;;
3527;SDS011;1778;47.966;7.854;2023-12-14T05:58:09;5.80;;;5.70;;
3527;SDS011;1778;47.966;7.854;2023-12-14T05:59:10;5.53;;;5.43;;
3527;SDS011;1778;47.966;7.854;2023-12-14T06:00:12;5.67;;;5.57;;
3527;SDS011;1778;47.966;7.854;2023-12-14T06:01:16;5.77;;;5.53;;
3527;SDS011;1778;47.966;7.854;2023-12-14T06:02:19;5.43;;;5.33;;
3527;SDS011;1778;47.966;7.854;2023-12-14T06:03:20;5.43;;;5.33;;
3527;SDS011;1778;47.966;7.854;2023-12-14T06:04:22;5.27;;;5.17;;
3527;SDS011;1778;47.966;7.854;2023-12-14T06:05:23;6.80;;;6.40;;
3527;SDS011;1778;47.966;7.854;2023-12-14T06:06:24;5.97;;;5.87;;
3527;SDS011;1778;47.966;7.854;2023-12-14T06:07:26;5.97;;;5.77;;
3527;SDS011;1778;47.966;7.854;2023-12-14T06:08:27;5.50;;;5.40;;
3527;SDS011;1778;47.966;7.854;2023-12-14T06:09:29;6.07;;;5.97;;
3527;SDS011;1778;47.966;7.854;2023-12-14T06:10:35;5.80;;;5.70;;
3527;SDS011;1778;47.966;7.854;2023-12-14T06:11:38;5.43;;;5.33;;
3527;SDS011;1778;47.966;7.854;2023-12-14T06:12:39;5.50;;;5.40;;
3527;SDS011;1778;47.966;7.854;2023-12-14T06:13:41;5.60;;;5.50;;
3527;SDS011;1778;47.966;7.854;2023-12-14T06:14:42;5.30;;;5.20;;
3527;SDS011;1778;47.966;7.854;2023-12-14T06:15:45;6.90;;;5.70;;
3527;SDS011;1778;47.966;7.854;2023-12-14T06:16:47;5.80;;;5.70;;
3527;SDS011;1778;47.966;7.854;2023-12-14T06:19:21;6.80;;;6.60;;
3527;SDS011;1778;47.966;7.854;2023-12-14T06:20:23;6.47;;;6.27;;
3527;SDS011;1778;47.966;7.854;2023-12-14T06:21:24;5.70;;;5.60;;
3527;SDS011;1778;47.966;7.854;2023-12-14T06:22:29;5.90;;;5.67;;
3527;SDS011;1778;47.966;7.854;2023-12-14T06:23:30;6.43;;;6.03;;
3527;SDS011;1778;47.966;7.854;2023-12-14T06:24:31;6.00;;;5.87;;
3527;SDS011;1778;47.966;7.854;2023-12-14T06:25:33;6.03;;;5.83;;